Richard Russell

Olheiro-Chefe - Tottenham
22 Fev 2027
Segunda-feira
Processo

Personalidade

Adaptabilidade (7) Ambição (10) Controvérsia (4) Lealdade (1) Pressão (2) Profissionalismo (12) Espírito Esportivo (1) Temperamento (15)

Perfil

Estilo de Treinamento Democrático
Licença Continental C
Determinação 13
Gestão de Pessoas 15
Motivação 13
Disciplina 13
Satisfação no Trabalho
50%
Fadiga
0%
Função Olheiro-Chefe
Salário 24.1K p/s
Contrato 14.03.2027

Desempenho

Comportamento Normal
Eficácia do Treinamento
26%
Desenvolvimento do Jogador
55%
Prevenção de Lesões
40%
Implementação Tática
50%

Eventos Recentes

Negociação de contrato iniciada agora
Negociação de contrato iniciada agora
Avaliou um jogador agora
Negociação de contrato iniciada agora
Avaliou um jogador agora
Avaliou um jogador agora
Negociação de contrato iniciada agora
Observou uma partida agora

Monitorando agora

124
Jogador Clube Status Habilidade Confiança Observado Última observação Último voto
Mateo Retegui Al-Qadisiyah Ativo 159 / 160 40% 14 20.02.2027 -
Ivan Toney Al-Ahli Ativo 142 / 152 40% 11 20.02.2027 -
Ollie Watkins Aston Villa Ativo 150 / 148 40% 11 20.02.2027 -
Largie Ramazani Leeds United Ativo 141 / 143 40% 4 19.02.2027 -
Federico Chiesa Liverpool Ativo 156 / 151 40% 3 19.02.2027 -
Richard Koné Queens Park Rangers Ativo 117 / 121 40% 1 19.02.2027 -
Tyreece Campbell Charlton Athletic Ativo 123 / 122 40% 1 19.02.2027 -
Rasmus Højlund Napoli Ativo 150 / 149 40% 9 18.02.2027 -
Deniz Undav Manchester United Ativo 160 / 150 40% 6 18.02.2027 -
Gonzalo Plata Dinamo Moscow Ativo 135 / 135 40% 1 14.02.2027 -
Aune Heggebø West Bromwich Albion Ativo 134 / 126 40% 1 14.02.2027 -
Lorenzo Colombo Genoa Ativo 137 / 136 40% 1 14.02.2027 -
Gianluca Scamacca Atalanta Ativo 144 / 146 40% 8 13.02.2027 -
Randal Kolo Muani Juventus Ativo 146 / 146 40% 2 13.02.2027 -
Gonzalo Fulham Ativo 143 / 149 40% 3 12.02.2027 -
Armando Broja Burnley Ativo 140 / 138 40% 1 12.02.2027 -
Christian Pulisic AC Milan Ativo 158 / 160 40% 1 08.02.2027 -
Jonathan David Juventus Ativo 155 / 150 40% 2 04.02.2027 -
Steven Bergwijn Al-Ittihad Ativo 140 / 151 40% 5 31.01.2027 -
Keagan Hlatshwayo SuperSport United Ativo 113 / 115 40% 7 30.01.2027 -
Matheus Alves CSKA Moscow Ativo 133 / 136 40% 1 30.01.2027 -
Samir El Mourabet RC Strasbourg Ativo 118 / 129 40% 1 26.01.2027 -
Rodrigo Mora AS Roma Ativo 135 / 142 40% 1 26.01.2027 -
Mahmoud Al Bloushi Al Shabab Ativo 158 / 149 40% 2 18.01.2027 -
Evidence Makgopa Orlando Pirates Ativo 106 / 115 40% 2 11.01.2027 -
Mohamed-Ali Cho Hull City Relatório pronto 134 / 134 75% 5 11.01.2027 -
Joe Gelhardt Hull City Ativo 130 / 128 40% 1 09.01.2027 -
Camilo Durán Bloemfontein Celtic Perdido 118 / 116 40% 1 09.01.2027 -
Luciano Gondou CSKA Moscow Ativo 127 / 128 40% 1 09.01.2027 -
Itumeleng Tau Ajax Cape Town Relatório pronto 118 / 114 75% 4 06.01.2027 -
Dom Ballard Leyton Orient Ativo 119 / 122 40% 3 06.01.2027 -
Camilo Durán Bloemfontein Celtic Perdido 130 / 120 40% 2 06.01.2027 -
Jean-Luc Morin Tours Ativo 137 / 140 40% 2 06.01.2027 -
George Hirst Stoke City Relatório pronto 134 / 132 67% 2 05.01.2027 -
Mao Hosoya Corinthians Relatório pronto 134 / 135 67% 1 01.01.2027 -
Othmane Maamma Watford Ativo 122 / 129 40% 8 30.12.2026 -
Arda Güler Real Madrid Ativo 144 / 152 40% 5 29.12.2026 -
Honest Ahanor Atalanta Ativo 123 / 136 40% 4 29.12.2026 -
Robin Roefs Sunderland Ativo 149 / 147 40% 1 29.12.2026 -
Elia Caprile Cagliari Ativo 138 / 142 40% 1 29.12.2026 -
Marco Carnesecchi Atalanta Ativo 156 / 154 40% 1 29.12.2026 -
Ollie Scarles West Ham United Ativo 130 / 134 40% 7 26.12.2026 -
Caleb Yirenkyi Coventry City Ativo 140 / 138 40% 8 24.12.2026 -
Cundo Leicester City Ativo 121 / 139 40% 4 24.12.2026 -
Pedro Zenit Ativo 140 / 137 40% 6 23.12.2026 -
Etiosa Ighodaro Kaizer Chiefs Ativo 114 / 114 40% 1 23.12.2026 -
Amos Inusah Wa All Stars Ativo 116 / 117 40% 2 21.12.2026 -
Afimico Pululu Al-Hazem Ativo 124 / 128 40% 1 21.12.2026 -
Roger Fernandes Al-Ittihad Ativo 134 / 134 40% 5 18.12.2026 -
Kauã Elias Shakhtar Ativo 132 / 131 40% 1 18.12.2026 -
Mauricio Amaro Atlanta United FC Ativo 115 / 128 40% 10 16.12.2026 -
Kirill Glebov CSKA Moscow Ativo 133 / 128 40% 8 16.12.2026 -
Leo Castledine Middlesbrough Ativo 125 / 132 40% 4 15.12.2026 -
El Hadji Malick Diouf Brentford Ativo 138 / 146 40% 12 14.12.2026 -
João Muniz Sporting CP Ativo 114 / 123 40% 1 14.12.2026 -
Rabby Nzingoula West Bromwich Albion Ativo 113 / 125 40% 1 09.12.2026 -
Mateo Silvetti Inter Miami CF Ativo 118 / 130 40% 6 07.12.2026 -
Bobby Clark Derby County Ativo 118 / 124 40% 6 07.12.2026 -
Noah Sadiki Sunderland Ativo 144 / 148 40% 6 05.12.2026 -
Romelle Donovan Brentford Ativo 116 / 126 40% 1 01.12.2026 -
Harrison Armstrong Everton Ativo 120 / 135 40% 4 28.11.2026 -
Chemsdine Talbi Sunderland Ativo 135 / 144 40% 9 28.11.2026 -
Talles Magno New York City Ativo 132 / 133 40% 1 27.11.2026 -
Anthony Okachi Great Olympics Ativo 91 / 94 40% 1 27.11.2026 -
Axel Tape Bayer Leverkusen Ativo 126 / 128 40% 1 25.11.2026 -
Obed Vargas Atlético Madrid Ativo 123 / 126 40% 1 25.11.2026 -
Carl Rushworth Coventry City Ativo 130 / 134 40% 1 22.11.2026 -
Jaydee Canvot Crystal Palace Ativo 123 / 134 40% 3 19.11.2026 -
Pedro Bravo FC Midtjylland Ativo 125 / 124 40% 1 18.11.2026 -
Rafael Navarro Colorado Rapids Ativo 133 / 126 40% 1 18.11.2026 -
Mbekezeli Mbokazi Chicago Fire Ativo 121 / 124 40% 3 16.11.2026 -
Robert FC Copenhagen Ativo 131 / 128 40% 6 13.11.2026 -
Rocco Vata Watford Ativo 118 / 126 40% 3 13.11.2026 -
Mihailo Ivanović Millwall Ativo 115 / 125 40% 4 13.11.2026 -
Arjan Malić Sturm Graz Ativo 116 / 126 40% 2 11.11.2026 -
Rayan Bournemouth Ativo 136 / 138 40% 3 08.11.2026 -
Leny Yoro Manchester United Ativo 148 / 153 40% 2 06.11.2026 -
Sergi Domínguez Dinamo Zagreb Ativo 128 / 124 40% 1 06.11.2026 -
Ramiro Hernandes Belgrano Ativo 117 / 128 40% 5 01.11.2026 -
Duncan McGuire Houston Dynamo Ativo 122 / 123 40% 1 31.10.2026 -
Ngal'Ayel Mukau LOSC Lille Ativo 140 / 138 40% 1 28.10.2026 -
Luca Langoni New England Revolution Ativo 139 / 134 40% 1 26.10.2026 -
Wandile Duba Bidvest Wits Ativo 106 / 107 40% 1 26.10.2026 -
Dayann Methalie Sunderland Ativo 131 / 132 40% 1 23.10.2026 -
Louis Munteanu DC United Ativo 117 / 128 40% 1 23.10.2026 -
Bénie Traoré New York City Ativo 115 / 122 40% 1 19.10.2026 -
Kostantis Tzolakis Hull City Ativo 138 / 139 40% 1 18.10.2026 -
Senne Lammens Manchester United Ativo 141 / 146 40% 1 18.10.2026 -
Mamadou Diakhon Club Brugge Ativo 125 / 124 40% 2 12.10.2026 -
Elías Báez Atlanta United FC Ativo 116 / 127 40% 6 10.10.2026 -
Axel Alderweireld KV Oostende Ativo 138 / 142 40% 1 08.10.2026 -
Stanislav Agkatsev Krasnodar Perdido 134 / 138 40% 1 07.10.2026 -
Mateusz Kochalski Qarabag Ativo 140 / 133 40% 1 07.10.2026 -
Álex Jiménez Bournemouth Ativo 149 / 147 40% 2 06.10.2026 -
Tristan Degreef Anderlecht Ativo 119 / 125 40% 2 04.10.2026 -
Luka Romero Cruz Azul Ativo 123 / 123 40% 2 01.10.2026 -
Relebohile Mofokeng Orlando Pirates Ativo 111 / 123 40% 4 26.09.2026 -
Sergey Pinyaev Lokomotiv Moscow Ativo 124 / 127 40% 3 25.09.2026 -
Sergio Quintero La Equidad Ativo 131 / 138 40% 1 23.09.2026 -
Yaimar Medina Racing Genk Ativo 119 / 129 40% 1 23.09.2026 -
Amin Boudri Los Angeles Football Club Ativo 131 / 129 40% 6 21.09.2026 -
Johan Manzambi Aston Villa Ativo 138 / 146 40% 3 21.09.2026 -
Eliás Montiel Pachuca Ativo 137 / 132 40% 4 18.09.2026 -
Veljko Milosavljević Bournemouth Ativo 122 / 135 40% 1 18.09.2026 -
Mateus Mané Manchester United Ativo 124 / 139 40% 1 16.09.2026 -
Mario Stroeykens Anderlecht Ativo 125 / 131 40% 1 16.09.2026 -
Lautaro Millán Independiente Ativo 123 / 126 40% 1 13.09.2026 -
Luther Phiri SuperSport United Ativo 121 / 124 40% 1 12.09.2026 -
Ignacio Perruzzi San Lorenzo Ativo 116 / 131 40% 1 11.09.2026 -
Nordi Mukiele Sunderland Rejeitado 147 / 146 76% 1 24.08.2026 Rejeitar
Ricardo Horta Braga Ativo 149 / 147 40% 1 24.08.2026 -
Leandro Trossard Besiktas Ativo 157 / 158 40% 1 24.08.2026 -
Alysson Edward Aston Villa Ativo 112 / 130 40% 1 20.08.2026 -
Gustavo Sá Nottingham Forest Ativo 132 / 141 40% 1 20.08.2026 -
Iván Fresneda Sporting CP Ativo 140 / 138 40% 1 18.08.2026 -
Francisco Chissumba Braga Ativo 117 / 125 40% 1 18.08.2026 -
Alexander Nübel Besiktas Ativo 149 / 144 40% 1 17.08.2026 -
Dean Henderson Crystal Palace Ativo 146 / 145 40% 1 17.08.2026 -
Bart Verbruggen Brighton Ativo 144 / 152 40% 1 17.08.2026 -
Jens Hjertø-Dahl Hull City Ativo 123 / 131 40% 1 13.08.2026 -
Jair Nottingham Forest Ativo 131 / 129 40% 2 09.08.2026 -
Nahuel Herrera Penarol Ativo 120 / 127 40% 1 05.08.2026 -
Jérémy Jacquet Liverpool Ativo 143 / 140 40% 1 02.08.2026 -
Thiago Brentford Ativo 141 / 142 40% 1 01.08.2026 -